Yacht Lady — WDA2527 — position and weather

sailwx.info

Track history (hours):
 
Tides and Currents Weather Stations Pressure Air Temp Water Temp Dewpoint Dewpoint Depression Visibility Wind Speed Wind Dir Waves Ship Positions

Yacht Lady

Owner: YACHT LADY LLC, INCLINE VILLAGE, NV. More information available from US FCC via Universal Licensing System and Coast Guard Vessel Documentation Center.

Last reported at 2017-Oct-15 16:57 UTC. Time now 2017-Oct-18 15:09 UTC.
Position N 37°55' W 122°21'.

; draft 3 m.

Type: Pleasure craft. MMSI: 338309000.

Date/timePositionNaut miles runAvg speedWind from/ knotsBaromVisibWave heightAir tempDewpointWater temp
2017-Oct-15 16:57N 37°55' W 122°21'0 0.3
2017-Oct-15 16:26N 37°55' W 122°21'1 2.4
2017-Oct-15 16:00N 37°54' W 122°22'4 8.9
2017-Oct-15 15:30N 37°50' W 122°25'2 4.4
2017-Oct-15 14:58N 37°48' W 122°27'  
2017-Oct-08 03:21N 37°49' W 122°27'2 4.9
2017-Oct-08 03:00N 37°51' W 122°28'1 1.6
2017-Oct-08 02:30N 37°51' W 122°28'2 4.6
2017-Oct-08 02:01N 37°51' W 122°25'4 8.0
2017-Oct-08 01:31N 37°47' W 122°23'1 1.0
2017-Oct-08 00:56N 37°47' W 122°23'0 0.0
2017-Oct-08 00:26N 37°47' W 122°23'0 0.0
2017-Oct-07 23:53N 37°47' W 122°23'0 0.0
2017-Oct-07 23:30N 37°47' W 122°23'2 4.5
2017-Oct-07 23:00N 37°49' W 122°24'1 1.9
2017-Oct-07 22:23N 37°49' W 122°26'0 0.1
2017-Oct-07 21:53N 37°49' W 122°25'0 0.2
2017-Oct-07 21:29N 37°49' W 122°25'0 0.1
2017-Oct-07 20:56N 37°49' W 122°25'1 3.4
2017-Oct-07 20:31N 37°49' W 122°24'2 2.2
2017-Oct-07 19:33N 37°47' W 122°23'0 0.0
2017-Oct-07 19:22N 37°47' W 122°23'0 0.0
2017-Oct-07 18:56N 37°47' W 122°23'0 0.0
2017-Oct-07 18:24N 37°47' W 122°23'0 0.0
2017-Oct-07 17:46N 37°47' W 122°23'0 0.0
2017-Oct-07 17:20N 37°47' W 122°23'0 0.0
2017-Oct-07 16:57N 37°47' W 122°23'1 1.2
2017-Oct-07 16:30N 37°47' W 122°23'3 6.0
2017-Oct-07 15:59N 37°48' W 122°27'0 0.0
2017-Oct-07 15:30N 37°48' W 122°27'0 0.0
2017-Oct-07 14:59N 37°48' W 122°27'0 0.0
2017-Oct-07 14:29N 37°48' W 122°27'0 0.0
2017-Oct-07 13:59N 37°48' W 122°27'0 0.0
2017-Oct-07 13:30N 37°48' W 122°27'0 0.0
2017-Oct-07 12:55N 37°48' W 122°27'0 0.0
2017-Oct-07 12:28N 37°48' W 122°27'0 0.0
2017-Oct-07 11:58N 37°48' W 122°27'0 0.0
2017-Oct-07 11:28N 37°48' W 122°27'0 0.0
2017-Oct-07 10:55N 37°48' W 122°27'0 0.0
2017-Oct-07 10:23N 37°48' W 122°27'0 0.0
2017-Oct-07 10:00N 37°48' W 122°27'0 0.0
2017-Oct-07 09:28N 37°48' W 122°27'0 0.0
2017-Oct-07 08:57N 37°48' W 122°27'0 0.0
2017-Oct-07 08:29N 37°48' W 122°27'0 0.0
2017-Oct-07 07:59N 37°48' W 122°27'0 0.0
2017-Oct-07 07:30N 37°48' W 122°27'0 0.0
2017-Oct-07 06:59N 37°48' W 122°27'0 0.0
2017-Oct-07 06:25N 37°48' W 122°27'0 0.0
2017-Oct-07 05:53N 37°48' W 122°27'0 0.0
2017-Oct-07 05:30N 37°48' W 122°27'0 0.0
2017-Oct-07 04:59N 37°48' W 122°27'0 0.0
2017-Oct-07 04:29N 37°48' W 122°27'0 0.0
2017-Oct-07 04:00N 37°48' W 122°27'0 0.0
2017-Oct-07 03:30N 37°48' W 122°27'0 0.0
2017-Oct-07 02:56N 37°48' W 122°27'0 0.0
2017-Oct-07 02:26N 37°48' W 122°27'0 0.0
2017-Oct-07 01:59N 37°48' W 122°27'0 0.0
2017-Oct-07 01:30N 37°48' W 122°27'0 0.0
2017-Oct-07 00:58N 37°48' W 122°27'0 0.0
2017-Oct-07 00:25N 37°48' W 122°27'0 0.0
2017-Oct-07 00:00N 37°48' W 122°27'0 0.0
2017-Oct-06 23:30N 37°48' W 122°27'0 0.0
2017-Oct-06 22:55N 37°48' W 122°27'0 0.0
2017-Oct-06 22:28N 37°48' W 122°27'0 0.0
2017-Oct-06 21:53N 37°48' W 122°27'0 0.0
2017-Oct-06 21:30N 37°48' W 122°27'0 0.0
2017-Oct-06 20:58N 37°48' W 122°27'0 0.0
2017-Oct-06 20:26N 37°48' W 122°27'0 0.0
2017-Oct-06 20:01N 37°48' W 122°27'0 0.0
2017-Oct-06 19:29N 37°48' W 122°27'0 0.0
2017-Oct-06 18:58N 37°48' W 122°27'0 0.0
2017-Oct-06 18:25N 37°48' W 122°27'0 0.0
2017-Oct-06 18:00N 37°48' W 122°27'0 0.0
2017-Oct-06 17:28N 37°48' W 122°27'0 0.0
2017-Oct-06 16:58N 37°48' W 122°27'0 0.0
2017-Oct-06 16:25N 37°48' W 122°27'0 0.0
2017-Oct-06 15:58N 37°48' W 122°27'0 0.0
2017-Oct-06 15:30N 37°48' W 122°27'0 0.0
2017-Oct-06 14:58N 37°48' W 122°27'0 0.0
2017-Oct-06 14:26N 37°48' W 122°27'0 0.0
2017-Oct-06 14:01N 37°48' W 122°27'0 0.0
2017-Oct-06 13:28N 37°48' W 122°27'0 0.0
2017-Oct-06 12:54N 37°48' W 122°27'0 0.0
2017-Oct-06 12:25N 37°48' W 122°27'0 0.0
2017-Oct-06 11:59N 37°48' W 122°27'0 0.0
2017-Oct-06 11:30N 37°48' W 122°27'0 0.0
2017-Oct-06 10:58N 37°48' W 122°27'0 0.0
2017-Oct-06 10:29N 37°48' W 122°27'0 0.0
2017-Oct-06 10:01N 37°48' W 122°27'0 0.0
2017-Oct-06 09:28N 37°48' W 122°27'0 0.0
2017-Oct-06 08:58N 37°48' W 122°27'0 0.0
2017-Oct-06 08:30N 37°48' W 122°27'0 0.0
2017-Oct-06 07:57N 37°48' W 122°27'0 0.0
2017-Oct-06 07:26N 37°48' W 122°27'0 0.0
2017-Oct-06 07:00N 37°48' W 122°27'0 0.0
2017-Oct-06 06:28N 37°48' W 122°27'0 0.0
2017-Oct-06 06:00N 37°48' W 122°27'0 0.0
2017-Oct-06 05:30N 37°48' W 122°27'0 0.0
2017-Oct-06 04:58N 37°48' W 122°27'0 0.0
2017-Oct-06 04:24N 37°48' W 122°27'0 0.0
2017-Oct-06 03:58N 37°48' W 122°27'0 0.0
2017-Oct-06 03:27N 37°48' W 122°27'0 0.0
2017-Oct-06 02:55N 37°48' W 122°27'0 0.0
2017-Oct-06 02:24N 37°48' W 122°27'0 0.0
2017-Oct-06 02:00N 37°48' W 122°27'0 0.0
2017-Oct-06 01:29N 37°48' W 122°27'0 0.0
2017-Oct-06 01:00N 37°48' W 122°27'0 0.0
2017-Oct-06 00:23N 37°48' W 122°27'0 0.0
2017-Oct-05 23:53N 37°48' W 122°27'0 0.0
2017-Oct-05 23:28N 37°48' W 122°27'0 0.0
2017-Oct-05 22:57N 37°48' W 122°27'0 0.0
2017-Oct-05 22:24N 37°48' W 122°27'0 0.0
2017-Oct-05 21:58N 37°48' W 122°27'0 0.0
2017-Oct-05 21:28N 37°48' W 122°27'0 0.0
2017-Oct-05 20:57N 37°48' W 122°27'0 0.0
2017-Oct-05 20:28N 37°48' W 122°27'0 0.0
2017-Oct-05 20:00N 37°48' W 122°27'0 0.0
2017-Oct-05 19:29N 37°48' W 122°27'0 0.0
2017-Oct-05 18:57N 37°48' W 122°27'0 0.0
2017-Oct-05 18:22N 37°48' W 122°27'0 0.0
2017-Oct-05 18:00N 37°48' W 122°27'0 0.0
2017-Oct-05 17:29N 37°48' W 122°27'  
Track history (hours):
 
Tides and Currents Weather Stations Pressure Air Temp Water Temp Dewpoint Dewpoint Depression Visibility Wind Speed Wind Dir Waves Ship Positions

Yacht Lady

Owner: YACHT LADY LLC, INCLINE VILLAGE, NV. More information available from US FCC via Universal Licensing System and Coast Guard Vessel Documentation Center.

Last reported at 2017-Oct-15 16:57 UTC. Time now 2017-Oct-18 15:09 UTC.
Position N 37°55' W 122°21'.

; draft 3 m.

Type: Pleasure craft. MMSI: 338309000.

Date/timePositionNaut miles runAvg speedWind from/ knotsBaromVisibWave heightAir tempDewpointWater temp
2017-Oct-15 16:57N 37°55' W 122°21'0 0.3
2017-Oct-15 16:26N 37°55' W 122°21'1 2.4
2017-Oct-15 16:00N 37°54' W 122°22'4 8.9
2017-Oct-15 15:30N 37°50' W 122°25'2 4.4
2017-Oct-15 14:58N 37°48' W 122°27'  
2017-Oct-08 03:21N 37°49' W 122°27'2 4.9
2017-Oct-08 03:00N 37°51' W 122°28'1 1.6
2017-Oct-08 02:30N 37°51' W 122°28'2 4.6
2017-Oct-08 02:01N 37°51' W 122°25'4 8.0
2017-Oct-08 01:31N 37°47' W 122°23'1 1.0
2017-Oct-08 00:56N 37°47' W 122°23'0 0.0
2017-Oct-08 00:26N 37°47' W 122°23'0 0.0
2017-Oct-07 23:53N 37°47' W 122°23'0 0.0
2017-Oct-07 23:30N 37°47' W 122°23'2 4.5
2017-Oct-07 23:00N 37°49' W 122°24'1 1.9
2017-Oct-07 22:23N 37°49' W 122°26'0 0.1
2017-Oct-07 21:53N 37°49' W 122°25'0 0.2
2017-Oct-07 21:29N 37°49' W 122°25'0 0.1
2017-Oct-07 20:56N 37°49' W 122°25'1 3.4
2017-Oct-07 20:31N 37°49' W 122°24'2 2.2
2017-Oct-07 19:33N 37°47' W 122°23'0 0.0
2017-Oct-07 19:22N 37°47' W 122°23'0 0.0
2017-Oct-07 18:56N 37°47' W 122°23'0 0.0
2017-Oct-07 18:24N 37°47' W 122°23'0 0.0
2017-Oct-07 17:46N 37°47' W 122°23'0 0.0
2017-Oct-07 17:20N 37°47' W 122°23'0 0.0
2017-Oct-07 16:57N 37°47' W 122°23'1 1.2
2017-Oct-07 16:30N 37°47' W 122°23'3 6.0
2017-Oct-07 15:59N 37°48' W 122°27'0 0.0
2017-Oct-07 15:30N 37°48' W 122°27'0 0.0
2017-Oct-07 14:59N 37°48' W 122°27'0 0.0
2017-Oct-07 14:29N 37°48' W 122°27'0 0.0
2017-Oct-07 13:59N 37°48' W 122°27'0 0.0
2017-Oct-07 13:30N 37°48' W 122°27'0 0.0
2017-Oct-07 12:55N 37°48' W 122°27'0 0.0
2017-Oct-07 12:28N 37°48' W 122°27'0 0.0
2017-Oct-07 11:58N 37°48' W 122°27'0 0.0
2017-Oct-07 11:28N 37°48' W 122°27'0 0.0
2017-Oct-07 10:55N 37°48' W 122°27'0 0.0
2017-Oct-07 10:23N 37°48' W 122°27'0 0.0
2017-Oct-07 10:00N 37°48' W 122°27'0 0.0
2017-Oct-07 09:28N 37°48' W 122°27'0 0.0
2017-Oct-07 08:57N 37°48' W 122°27'0 0.0
2017-Oct-07 08:29N 37°48' W 122°27'0 0.0
2017-Oct-07 07:59N 37°48' W 122°27'0 0.0
2017-Oct-07 07:30N 37°48' W 122°27'0 0.0
2017-Oct-07 06:59N 37°48' W 122°27'0 0.0
2017-Oct-07 06:25N 37°48' W 122°27'0 0.0
2017-Oct-07 05:53N 37°48' W 122°27'0 0.0
2017-Oct-07 05:30N 37°48' W 122°27'0 0.0
2017-Oct-07 04:59N 37°48' W 122°27'0 0.0
2017-Oct-07 04:29N 37°48' W 122°27'0 0.0
2017-Oct-07 04:00N 37°48' W 122°27'0 0.0
2017-Oct-07 03:30N 37°48' W 122°27'0 0.0
2017-Oct-07 02:56N 37°48' W 122°27'0 0.0
2017-Oct-07 02:26N 37°48' W 122°27'0 0.0
2017-Oct-07 01:59N 37°48' W 122°27'0 0.0
2017-Oct-07 01:30N 37°48' W 122°27'0 0.0
2017-Oct-07 00:58N 37°48' W 122°27'0 0.0
2017-Oct-07 00:25N 37°48' W 122°27'0 0.0
2017-Oct-07 00:00N 37°48' W 122°27'0 0.0
2017-Oct-06 23:30N 37°48' W 122°27'0 0.0
2017-Oct-06 22:55N 37°48' W 122°27'0 0.0
2017-Oct-06 22:28N 37°48' W 122°27'0 0.0
2017-Oct-06 21:53N 37°48' W 122°27'0 0.0
2017-Oct-06 21:30N 37°48' W 122°27'0 0.0
2017-Oct-06 20:58N 37°48' W 122°27'0 0.0
2017-Oct-06 20:26N 37°48' W 122°27'0 0.0
2017-Oct-06 20:01N 37°48' W 122°27'0 0.0
2017-Oct-06 19:29N 37°48' W 122°27'0 0.0
2017-Oct-06 18:58N 37°48' W 122°27'0 0.0
2017-Oct-06 18:25N 37°48' W 122°27'0 0.0
2017-Oct-06 18:00N 37°48' W 122°27'0 0.0
2017-Oct-06 17:28N 37°48' W 122°27'0 0.0
2017-Oct-06 16:58N 37°48' W 122°27'0 0.0
2017-Oct-06 16:25N 37°48' W 122°27'0 0.0
2017-Oct-06 15:58N 37°48' W 122°27'0 0.0
2017-Oct-06 15:30N 37°48' W 122°27'0 0.0
2017-Oct-06 14:58N 37°48' W 122°27'0 0.0
2017-Oct-06 14:26N 37°48' W 122°27'0 0.0
2017-Oct-06 14:01N 37°48' W 122°27'0 0.0
2017-Oct-06 13:28N 37°48' W 122°27'0 0.0
2017-Oct-06 12:54N 37°48' W 122°27'0 0.0
2017-Oct-06 12:25N 37°48' W 122°27'0 0.0
2017-Oct-06 11:59N 37°48' W 122°27'0 0.0
2017-Oct-06 11:30N 37°48' W 122°27'0 0.0
2017-Oct-06 10:58N 37°48' W 122°27'0 0.0
2017-Oct-06 10:29N 37°48' W 122°27'0 0.0
2017-Oct-06 10:01N 37°48' W 122°27'0 0.0
2017-Oct-06 09:28N 37°48' W 122°27'0 0.0
2017-Oct-06 08:58N 37°48' W 122°27'0 0.0
2017-Oct-06 08:30N 37°48' W 122°27'0 0.0
2017-Oct-06 07:57N 37°48' W 122°27'0 0.0
2017-Oct-06 07:26N 37°48' W 122°27'0 0.0
2017-Oct-06 07:00N 37°48' W 122°27'0 0.0
2017-Oct-06 06:28N 37°48' W 122°27'0 0.0
2017-Oct-06 06:00N 37°48' W 122°27'0 0.0
2017-Oct-06 05:30N 37°48' W 122°27'0 0.0
2017-Oct-06 04:58N 37°48' W 122°27'0 0.0
2017-Oct-06 04:24N 37°48' W 122°27'0 0.0
2017-Oct-06 03:58N 37°48' W 122°27'0 0.0
2017-Oct-06 03:27N 37°48' W 122°27'0 0.0
2017-Oct-06 02:55N 37°48' W 122°27'0 0.0
2017-Oct-06 02:24N 37°48' W 122°27'0 0.0
2017-Oct-06 02:00N 37°48' W 122°27'0 0.0
2017-Oct-06 01:29N 37°48' W 122°27'0 0.0
2017-Oct-06 01:00N 37°48' W 122°27'0 0.0
2017-Oct-06 00:23N 37°48' W 122°27'0 0.0
2017-Oct-05 23:53N 37°48' W 122°27'0 0.0
2017-Oct-05 23:28N 37°48' W 122°27'0 0.0
2017-Oct-05 22:57N 37°48' W 122°27'0 0.0
2017-Oct-05 22:24N 37°48' W 122°27'0 0.0
2017-Oct-05 21:58N 37°48' W 122°27'0 0.0
2017-Oct-05 21:28N 37°48' W 122°27'0 0.0
2017-Oct-05 20:57N 37°48' W 122°27'0 0.0
2017-Oct-05 20:28N 37°48' W 122°27'0 0.0
2017-Oct-05 20:00N 37°48' W 122°27'0 0.0
2017-Oct-05 19:29N 37°48' W 122°27'0 0.0
2017-Oct-05 18:57N 37°48' W 122°27'0 0.0
2017-Oct-05 18:22N 37°48' W 122°27'0 0.0
2017-Oct-05 18:00N 37°48' W 122°27'0 0.0
2017-Oct-05 17:29N 37°48' W 122°27'  

Dump ship's entire track history